Time;durP1;ratioP1;P1;durP2;ratioP2;P2;SDS_P1;SDS_P2;PMS_P1;PMS_P2;Temp;Humidity;BMP_temperature;BMP_pressure;BME280_temperature;BME280_humidity;BME280_pressure;Samples;Min_cycle;Max_cycle;Signal;HPM_P1;HPM_P2
2021/12/31 17:18:51;;;;;;;43.05;10.48;;;;;;;;;;5065909;28;20391;-65
2021/12/31 17:21:17;;;;;;;37.05;8.52;;;;;;;;;;5056058;28;20068;-65
2021/12/31 17:23:43;;;;;;;34.55;6.85;;;;;;;;;;5053025;28;20059;-66
2021/12/31 17:26:09;;;;;;;23.63;5.65;;;;;;;;;;5051310;28;20112;-66
2021/12/31 17:28:36;;;;;;;33.55;5.05;;;;;;;;;;5055969;28;20463;-65
2021/12/31 17:31:02;;;;;;;29.20;5.15;;;;;;;;;;5054751;28;20029;-66
2021/12/31 17:33:28;;;;;;;30.70;5.60;;;;;;;;;;5051821;28;20025;-65
2021/12/31 17:35:54;;;;;;;21.17;4.43;;;;;;;;;;5052261;28;20064;-65
2021/12/31 17:38:20;;;;;;;24.27;5.55;;;;;;;;;;5052709;28;20032;-65
2021/12/31 17:40:46;;;;;;;27.50;4.95;;;;;;;;;;5048104;28;20416;-65
2021/12/31 17:43:12;;;;;;;23.40;4.97;;;;;;;;;;5055739;28;20107;-65
2021/12/31 17:45:38;;;;;;;18.13;4.40;;;;;;;;;;5054047;28;20076;-64
2021/12/31 17:48:05;;;;;;;17.85;4.57;;;;;;;;;;5054571;28;20033;-64
2021/12/31 17:50:31;;;;;;;19.23;5.30;;;;;;;;;;5055079;28;20048;-64
2021/12/31 17:52:58;;;;;;;19.95;4.28;;;;;;;;;;5060923;28;20033;-63
2021/12/31 17:55:24;;;;;;;18.30;4.95;;;;;;;;;;5056227;28;20031;-62
2021/12/31 17:57:50;;;;;;;22.95;5.57;;;;;;;;;;5056328;28;20510;-62
2021/12/31 18:00:16;;;;;;;18.15;3.78;;;;;;;;;;5055100;28;20476;-61
2021/12/31 18:02:43;;;;;;;19.02;4.72;;;;;;;;;;5056848;28;20116;-62
2021/12/31 18:05:09;;;;;;;18.48;4.47;;;;;;;;;;5047584;28;20547;-61
2021/12/31 18:07:35;;;;;;;18.13;4.10;;;;;;;;;;5057319;28;20482;-61
2021/12/31 18:10:01;;;;;;;20.60;5.35;;;;;;;;;;5057067;28;20025;-61
2021/12/31 18:12:27;;;;;;;12.48;3.35;;;;;;;;;;5038057;28;20387;-62
2021/12/31 18:14:53;;;;;;;20.45;4.53;;;;;;;;;;5022911;28;20083;-63
2021/12/31 18:17:19;;;;;;;16.98;4.13;;;;;;;;;;5030517;28;20045;-63
2021/12/31 18:19:45;;;;;;;18.83;4.57;;;;;;;;;;5025697;28;20503;-62
2021/12/31 18:22:12;;;;;;;21.92;4.53;;;;;;;;;;5026923;28;20060;-62
2021/12/31 18:24:38;;;;;;;13.38;3.88;;;;;;;;;;5027857;28;20128;-61
2021/12/31 18:27:08;;;;;;;18.55;4.47;;;;;;;;;;5024849;28;20049;-62
2021/12/31 18:29:35;;;;;;;18.73;4.47;;;;;;;;;;5017587;28;20094;-61
2021/12/31 18:32:01;;;;;;;18.65;6.50;;;;;;;;;;5012781;28;20029;-61
2021/12/31 18:34:29;;;;;;;22.45;9.38;;;;;;;;;;5016539;28;20060;-62
2021/12/31 18:36:55;;;;;;;25.08;6.15;;;;;;;;;;5011832;28;20064;-61
2021/12/31 18:39:21;;;;;;;16.38;5.45;;;;;;;;;;5013496;28;20521;-61
2021/12/31 18:41:47;;;;;;;21.45;8.18;;;;;;;;;;5017198;28;20025;-62
2021/12/31 18:44:13;;;;;;;40.53;18.98;;;;;;;;;;5009590;28;20087;-61
2021/12/31 18:46:53;;;;;;;23.30;5.97;;;;;;;;;;5015322;28;20524;-61
2021/12/31 18:49:21;;;;;;;19.73;5.25;;;;;;;;;;5010628;28;20088;-61
2021/12/31 18:51:47;;;;;;;21.92;5.13;;;;;;;;;;5009102;28;20025;-61
2021/12/31 18:54:13;;;;;;;19.20;5.22;;;;;;;;;;5008982;28;20104;-61
2021/12/31 18:56:39;;;;;;;30.48;5.38;;;;;;;;;;5009398;28;20510;-62
2021/12/31 18:59:05;;;;;;;17.13;4.30;;;;;;;;;;5012569;28;20040;-61
2021/12/31 19:01:32;;;;;;;19.02;3.95;;;;;;;;;;5010804;28;20338;-61
2021/12/31 19:03:58;;;;;;;20.65;5.43;;;;;;;;;;5009036;28;20507;-61
2021/12/31 19:06:24;;;;;;;17.67;4.90;;;;;;;;;;5013653;28;20021;-62
2021/12/31 19:08:50;;;;;;;12.57;3.72;;;;;;;;;;5012362;28;20018;-61
2021/12/31 19:11:19;;;;;;;15.48;4.47;;;;;;;;;;5013898;28;20033;-62
2021/12/31 19:13:45;;;;;;;7.95;2.70;;;;;;;;;;5007441;28;20033;-61
2021/12/31 19:16:11;;;;;;;9.10;2.92;;;;;;;;;;5010825;28;20053;-60
2021/12/31 19:18:37;;;;;;;6.63;2.47;;;;;;;;;;5010918;28;20493;-61
2021/12/31 19:21:03;;;;;;;6.28;1.88;;;;;;;;;;5010306;28;20025;-61
2021/12/31 19:23:30;;;;;;;5.07;1.70;;;;;;;;;;5007322;28;20068;-60
2021/12/31 19:25:56;;;;;;;9.82;2.03;;;;;;;;;;5020028;28;20025;-61
2021/12/31 19:28:22;;;;;;;7.25;2.17;;;;;;;;;;5030757;28;20029;-62
2021/12/31 19:30:48;;;;;;;10.15;3.13;;;;;;;;;;5030552;28;20602;-63
2021/12/31 19:33:14;;;;;;;4.10;1.92;;;;;;;;;;5030663;28;20036;-63
2021/12/31 19:35:40;;;;;;;2.30;0.90;;;;;;;;;;5028167;28;20099;-63
2021/12/31 19:38:06;;;;;;;1.25;0.63;;;;;;;;;;5030800;28;20101;-62
2021/12/31 19:40:32;;;;;;;2.80;0.65;;;;;;;;;;5029486;28;20075;-62
2021/12/31 19:43:01;;;;;;;2.15;0.80;;;;;;;;;;5029609;28;20049;-61
2021/12/31 19:45:34;;;;;;;1.27;0.60;;;;;;;;;;5030330;28;20109;-62
2021/12/31 19:48:01;;;;;;;2.53;0.65;;;;;;;;;;5028599;28;20026;-62
2021/12/31 19:50:27;;;;;;;2.30;1.20;;;;;;;;;;5030685;28;20076;-62
2021/12/31 19:52:53;;;;;;;2.17;1.15;;;;;;;;;;5030459;28;20026;-63
2021/12/31 19:55:19;;;;;;;0.93;0.43;;;;;;;;;;5030620;28;20040;-63
2021/12/31 19:57:45;;;;;;;1.13;0.73;;;;;;;;;;5030557;28;20025;-63
2021/12/31 20:00:15;;;;;;;1.23;0.55;;;;;;;;;;5030877;28;20087;-63
2021/12/31 20:02:41;;;;;;;1.27;0.68;;;;;;;;;;5043119;28;20395;-63
2021/12/31 20:05:08;;;;;;;1.85;0.90;;;;;;;;;;5030428;28;20036;-62
2021/12/31 20:07:34;;;;;;;2.03;0.75;;;;;;;;;;5030676;28;20033;-61
2021/12/31 20:10:00;;;;;;;2.42;0.90;;;;;;;;;;5030227;28;20480;-63
2021/12/31 20:12:26;;;;;;;1.23;0.73;;;;;;;;;;5030501;28;20095;-62
2021/12/31 20:14:52;;;;;;;1.10;0.82;;;;;;;;;;5030520;28;20037;-62
2021/12/31 20:17:18;;;;;;;1.50;0.93;;;;;;;;;;5030282;28;20069;-62
2021/12/31 20:19:44;;;;;;;1.45;0.70;;;;;;;;;;5030566;28;20346;-61
2021/12/31 20:22:10;;;;;;;2.67;0.70;;;;;;;;;;5030373;28;20036;-60
2021/12/31 20:24:36;;;;;;;1.70;0.88;;;;;;;;;;5028839;28;20450;-61
2021/12/31 20:27:03;;;;;;;2.72;0.80;;;;;;;;;;5030157;28;20380;-62
2021/12/31 20:29:29;;;;;;;2.38;1.10;;;;;;;;;;5030495;28;20392;-62
2021/12/31 20:31:55;;;;;;;1.35;0.90;;;;;;;;;;5029242;28;20013;-62
2021/12/31 20:34:21;;;;;;;1.98;1.00;;;;;;;;;;5029726;28;20064;-61
2021/12/31 20:36:47;;;;;;;3.13;1.25;;;;;;;;;;5030305;28;20026;-62
2021/12/31 20:39:13;;;;;;;3.40;1.02;;;;;;;;;;5029224;28;20048;-60
2021/12/31 20:41:40;;;;;;;4.03;1.40;;;;;;;;;;5029776;28;20435;-61
2021/12/31 20:44:06;;;;;;;3.95;1.10;;;;;;;;;;5037237;28;20029;-59
2021/12/31 20:46:34;;;;;;;5.40;1.20;;;;;;;;;;5032897;28;20025;-64
2021/12/31 20:49:00;;;;;;;5.78;1.90;;;;;;;;;;5041006;28;20375;-63
2021/12/31 20:51:26;;;;;;;5.85;2.00;;;;;;;;;;5033244;28;20104;-61
2021/12/31 20:53:52;;;;;;;4.60;2.05;;;;;;;;;;5034149;28;20033;-61
2021/12/31 20:56:18;;;;;;;3.90;1.85;;;;;;;;;;5038291;28;20396;-61
2021/12/31 20:58:44;;;;;;;3.75;1.77;;;;;;;;;;5041647;28;20037;-61
2021/12/31 21:01:12;;;;;;;4.78;2.40;;;;;;;;;;5037832;28;20036;-62
2021/12/31 21:03:38;;;;;;;6.80;2.42;;;;;;;;;;5040355;28;20017;-60
2021/12/31 21:06:04;;;;;;;7.97;3.28;;;;;;;;;;5036385;28;20386;-62
2021/12/31 21:08:30;;;;;;;9.35;2.85;;;;;;;;;;5038843;28;20048;-61
2021/12/31 21:10:57;;;;;;;6.50;2.05;;;;;;;;;;5040285;28;20479;-61
2021/12/31 21:13:23;;;;;;;9.13;2.60;;;;;;;;;;5037415;28;20502;-62
2021/12/31 21:15:49;;;;;;;8.85;2.97;;;;;;;;;;5036090;28;20029;-62
2021/12/31 21:18:15;;;;;;;8.82;2.92;;;;;;;;;;5032775;28;20045;-62
2021/12/31 21:20:42;;;;;;;8.98;3.88;;;;;;;;;;5044685;28;20029;-62
2021/12/31 21:23:09;;;;;;;12.15;3.60;;;;;;;;;;5039638;28;20698;-61
2021/12/31 21:25:36;;;;;;;13.45;4.45;;;;;;;;;;5034586;28;20092;-62
2021/12/31 21:28:08;;;;;;;16.45;5.10;;;;;;;;;;5035404;28;20033;-61
2021/12/31 21:30:35;;;;;;;16.42;4.75;;;;;;;;;;5025543;28;20026;-61
2021/12/31 21:33:01;;;;;;;15.68;4.78;;;;;;;;;;5035335;28;20037;-62
2021/12/31 21:35:27;;;;;;;17.15;5.00;;;;;;;;;;5038809;28;20021;-62
2021/12/31 21:37:53;;;;;;;18.80;5.32;;;;;;;;;;5040448;28;20032;-63
2021/12/31 21:40:19;;;;;;;20.15;5.43;;;;;;;;;;5039300;28;20033;-60
2021/12/31 21:42:45;;;;;;;22.48;7.20;;;;;;;;;;5036143;28;20074;-62
2021/12/31 21:45:11;;;;;;;21.45;6.75;;;;;;;;;;5035744;28;20476;-61
2021/12/31 21:47:37;;;;;;;15.65;5.25;;;;;;;;;;5040739;28;20025;-61
2021/12/31 21:50:05;;;;;;;20.63;6.47;;;;;;;;;;5037346;28;20041;-60
2021/12/31 21:52:31;;;;;;;18.30;6.70;;;;;;;;;;5037222;28;20591;-62
2021/12/31 21:54:57;;;;;;;21.33;6.25;;;;;;;;;;5037291;28;20124;-62
2021/12/31 21:57:23;;;;;;;16.95;5.53;;;;;;;;;;5037860;28;20025;-62
2021/12/31 21:59:49;;;;;;;21.80;6.03;;;;;;;;;;5038448;28;20022;-61
2021/12/31 22:02:16;;;;;;;26.00;6.63;;;;;;;;;;5040023;28;20104;-61
2021/12/31 22:04:42;;;;;;;25.17;7.10;;;;;;;;;;5031157;28;20021;-61
2021/12/31 22:07:09;;;;;;;23.83;7.22;;;;;;;;;;5033852;28;20040;-61
2021/12/31 22:09:35;;;;;;;24.45;6.30;;;;;;;;;;5049903;28;20028;-61
2021/12/31 22:12:01;;;;;;;28.83;7.25;;;;;;;;;;5052014;28;20031;-60
2021/12/31 22:14:27;;;;;;;20.60;7.82;;;;;;;;;;5052984;28;20483;-61
2021/12/31 22:16:53;;;;;;;23.42;7.53;;;;;;;;;;5050561;28;20045;-61
2021/12/31 22:19:19;;;;;;;26.73;7.80;;;;;;;;;;5042309;28;20021;-60
2021/12/31 22:21:45;;;;;;;25.95;7.45;;;;;;;;;;5045115;28;20035;-60
2021/12/31 22:24:12;;;;;;;28.38;6.53;;;;;;;;;;5037860;28;20029;-61
2021/12/31 22:26:38;;;;;;;27.85;8.30;;;;;;;;;;5039531;28;20522;-62
2021/12/31 22:29:04;;;;;;;26.70;6.38;;;;;;;;;;5034128;28;20041;-61
2021/12/31 22:31:30;;;;;;;28.98;8.18;;;;;;;;;;5037326;28;20095;-60
2021/12/31 22:33:56;;;;;;;30.35;8.05;;;;;;;;;;5041597;28;20034;-61
2021/12/31 22:36:23;;;;;;;25.70;6.90;;;;;;;;;;5043818;28;20014;-61
2021/12/31 22:38:49;;;;;;;29.40;7.75;;;;;;;;;;5041153;28;20029;-62
2021/12/31 22:41:16;;;;;;;25.83;6.60;;;;;;;;;;5034978;28;20084;-60
2021/12/31 22:43:42;;;;;;;25.13;6.93;;;;;;;;;;5036218;28;20029;-60
2021/12/31 22:46:08;;;;;;;24.45;7.10;;;;;;;;;;5052373;28;20025;-60
2021/12/31 22:48:34;;;;;;;28.15;8.10;;;;;;;;;;5052185;28;20033;-60
2021/12/31 22:51:00;;;;;;;30.27;7.47;;;;;;;;;;5052234;28;20029;-61
2021/12/31 22:53:26;;;;;;;30.55;6.40;;;;;;;;;;5052030;28;20025;-60
2021/12/31 22:55:54;;;;;;;30.35;8.07;;;;;;;;;;5050712;28;20025;-60
2021/12/31 22:58:21;;;;;;;21.25;7.38;;;;;;;;;;5052008;28;20388;-61
2021/12/31 23:00:56;;;;;;;34.20;7.80;;;;;;;;;;5048815;28;20029;-60
2021/12/31 23:03:27;;;;;;;28.45;8.07;;;;;;;;;;5031505;28;20036;-61
2021/12/31 23:05:56;;;;;;;31.77;7.90;;;;;;;;;;5031804;28;20029;-61
2021/12/31 23:08:22;;;;;;;30.85;8.20;;;;;;;;;;5031832;28;20037;-59
2021/12/31 23:10:48;;;;;;;30.02;7.40;;;;;;;;;;5028963;28;20404;-60
2021/12/31 23:13:14;;;;;;;30.02;7.70;;;;;;;;;;5030984;28;20033;-60
2021/12/31 23:15:40;;;;;;;30.58;7.50;;;;;;;;;;5031646;28;20457;-61
2021/12/31 23:18:07;;;;;;;31.88;7.97;;;;;;;;;;5027513;28;20147;-62
2021/12/31 23:20:33;;;;;;;25.58;7.05;;;;;;;;;;5029235;28;20113;-61
